sensor_id;sensor_type;location;lat;lon;timestamp;P1;durP1;ratioP1;P2;durP2;ratioP2
12567;SDS011;6349;50.904;6.136;2023-08-24T00:00:28;4.13;;;2.85;;
12567;SDS011;6349;50.904;6.136;2023-08-24T00:02:29;3.22;;;2.50;;
12567;SDS011;6349;50.904;6.136;2023-08-24T00:04:29;3.00;;;2.70;;
12567;SDS011;6349;50.904;6.136;2023-08-24T00:06:30;2.95;;;2.53;;
12567;SDS011;6349;50.904;6.136;2023-08-24T00:08:30;2.22;;;2.03;;
12567;SDS011;6349;50.904;6.136;2023-08-24T00:10:31;2.40;;;2.20;;
12567;SDS011;6349;50.904;6.136;2023-08-24T00:12:32;2.78;;;2.35;;
12567;SDS011;6349;50.904;6.136;2023-08-24T00:14:34;2.78;;;2.40;;
12567;SDS011;6349;50.904;6.136;2023-08-24T00:16:34;3.75;;;2.40;;
12567;SDS011;6349;50.904;6.136;2023-08-24T00:18:35;4.82;;;2.50;;
12567;SDS011;6349;50.904;6.136;2023-08-24T00:20:35;2.97;;;2.50;;
12567;SDS011;6349;50.904;6.136;2023-08-24T00:22:37;6.47;;;3.10;;
12567;SDS011;6349;50.904;6.136;2023-08-24T00:24:39;3.55;;;2.65;;
12567;SDS011;6349;50.904;6.136;2023-08-24T00:26:39;4.68;;;2.70;;
12567;SDS011;6349;50.904;6.136;2023-08-24T00:28:40;2.78;;;2.40;;
12567;SDS011;6349;50.904;6.136;2023-08-24T00:30:40;3.58;;;2.40;;
12567;SDS011;6349;50.904;6.136;2023-08-24T00:32:41;3.75;;;3.10;;
12567;SDS011;6349;50.904;6.136;2023-08-24T00:34:41;3.65;;;2.70;;
12567;SDS011;6349;50.904;6.136;2023-08-24T00:36:42;3.28;;;2.50;;
12567;SDS011;6349;50.904;6.136;2023-08-24T00:38:43;3.08;;;2.50;;
12567;SDS011;6349;50.904;6.136;2023-08-24T00:40:43;3.63;;;2.58;;
12567;SDS011;6349;50.904;6.136;2023-08-24T00:42:44;3.17;;;2.70;;
12567;SDS011;6349;50.904;6.136;2023-08-24T00:44:49;2.80;;;2.50;;
12567;SDS011;6349;50.904;6.136;2023-08-24T00:46:49;2.50;;;2.30;;
12567;SDS011;6349;50.904;6.136;2023-08-24T00:48:50;2.50;;;2.30;;
12567;SDS011;6349;50.904;6.136;2023-08-24T00:50:52;2.42;;;2.22;;
12567;SDS011;6349;50.904;6.136;2023-08-24T00:52:53;2.50;;;2.20;;
12567;SDS011;6349;50.904;6.136;2023-08-24T00:54:54;2.35;;;2.15;;
12567;SDS011;6349;50.904;6.136;2023-08-24T00:56:55;2.00;;;1.80;;
12567;SDS011;6349;50.904;6.136;2023-08-24T00:58:56;2.42;;;2.05;;
12567;SDS011;6349;50.904;6.136;2023-08-24T01:00:57;2.15;;;1.95;;
12567;SDS011;6349;50.904;6.136;2023-08-24T01:02:58;2.00;;;1.90;;
12567;SDS011;6349;50.904;6.136;2023-08-24T01:04:58;4.28;;;2.40;;
12567;SDS011;6349;50.904;6.136;2023-08-24T01:06:59;2.83;;;2.50;;
12567;SDS011;6349;50.904;6.136;2023-08-24T01:09:00;3.70;;;2.60;;
12567;SDS011;6349;50.904;6.136;2023-08-24T01:11:02;2.13;;;2.03;;
12567;SDS011;6349;50.904;6.136;2023-08-24T01:13:12;2.47;;;2.22;;
12567;SDS011;6349;50.904;6.136;2023-08-24T01:15:26;3.85;;;2.40;;
12567;SDS011;6349;50.904;6.136;2023-08-24T01:17:34;3.15;;;2.42;;
12567;SDS011;6349;50.904;6.136;2023-08-24T01:19:41;2.38;;;2.17;;
12567;SDS011;6349;50.904;6.136;2023-08-24T01:21:43;2.55;;;2.35;;
12567;SDS011;6349;50.904;6.136;2023-08-24T01:24:03;3.95;;;2.60;;
12567;SDS011;6349;50.904;6.136;2023-08-24T01:26:13;3.25;;;2.58;;
12567;SDS011;6349;50.904;6.136;2023-08-24T01:28:18;3.85;;;2.45;;
12567;SDS011;6349;50.904;6.136;2023-08-24T01:30:21;3.05;;;2.53;;
12567;SDS011;6349;50.904;6.136;2023-08-24T01:32:22;2.72;;;2.33;;
12567;SDS011;6349;50.904;6.136;2023-08-24T01:34:23;7.43;;;2.63;;
12567;SDS011;6349;50.904;6.136;2023-08-24T01:36:23;3.85;;;2.70;;
12567;SDS011;6349;50.904;6.136;2023-08-24T01:38:25;3.67;;;2.40;;
12567;SDS011;6349;50.904;6.136;2023-08-24T01:40:27;3.63;;;2.55;;
12567;SDS011;6349;50.904;6.136;2023-08-24T01:42:37;2.40;;;2.13;;
12567;SDS011;6349;50.904;6.136;2023-08-24T01:44:47;4.05;;;3.00;;
12567;SDS011;6349;50.904;6.136;2023-08-24T01:46:50;4.40;;;2.50;;
12567;SDS011;6349;50.904;6.136;2023-08-24T01:48:52;2.83;;;2.55;;
12567;SDS011;6349;50.904;6.136;2023-08-24T01:50:54;2.80;;;2.50;;
12567;SDS011;6349;50.904;6.136;2023-08-24T01:52:57;3.25;;;2.58;;
12567;SDS011;6349;50.904;6.136;2023-08-24T01:54:58;4.20;;;2.88;;
12567;SDS011;6349;50.904;6.136;2023-08-24T01:56:59;5.03;;;2.53;;
12567;SDS011;6349;50.904;6.136;2023-08-24T01:58:59;4.05;;;2.63;;
12567;SDS011;6349;50.904;6.136;2023-08-24T02:01:00;4.13;;;2.88;;
12567;SDS011;6349;50.904;6.136;2023-08-24T02:03:00;5.07;;;2.72;;
12567;SDS011;6349;50.904;6.136;2023-08-24T02:05:01;3.33;;;2.65;;
12567;SDS011;6349;50.904;6.136;2023-08-24T02:07:03;4.82;;;2.55;;
12567;SDS011;6349;50.904;6.136;2023-08-24T02:09:06;2.38;;;2.17;;
12567;SDS011;6349;50.904;6.136;2023-08-24T02:11:07;2.53;;;2.33;;
12567;SDS011;6349;50.904;6.136;2023-08-24T02:13:08;2.60;;;2.30;;
12567;SDS011;6349;50.904;6.136;2023-08-24T02:15:08;3.55;;;2.40;;
12567;SDS011;6349;50.904;6.136;2023-08-24T02:17:09;5.47;;;2.58;;
12567;SDS011;6349;50.904;6.136;2023-08-24T02:19:10;3.85;;;2.22;;
12567;SDS011;6349;50.904;6.136;2023-08-24T02:21:10;2.88;;;2.58;;
12567;SDS011;6349;50.904;6.136;2023-08-24T02:23:12;3.50;;;2.50;;
12567;SDS011;6349;50.904;6.136;2023-08-24T02:25:12;2.30;;;2.10;;
12567;SDS011;6349;50.904;6.136;2023-08-24T02:27:13;2.30;;;2.10;;
12567;SDS011;6349;50.904;6.136;2023-08-24T02:29:14;2.30;;;2.10;;
12567;SDS011;6349;50.904;6.136;2023-08-24T02:31:14;1.95;;;1.83;;
12567;SDS011;6349;50.904;6.136;2023-08-24T02:33:16;3.05;;;2.42;;
12567;SDS011;6349;50.904;6.136;2023-08-24T02:35:16;3.67;;;2.40;;
12567;SDS011;6349;50.904;6.136;2023-08-24T02:37:18;2.88;;;2.50;;
12567;SDS011;6349;50.904;6.136;2023-08-24T02:39:18;2.60;;;2.30;;
12567;SDS011;6349;50.904;6.136;2023-08-24T02:41:19;4.28;;;2.80;;
12567;SDS011;6349;50.904;6.136;2023-08-24T02:43:19;3.90;;;2.67;;
12567;SDS011;6349;50.904;6.136;2023-08-24T02:45:20;2.60;;;2.30;;
12567;SDS011;6349;50.904;6.136;2023-08-24T02:47:21;4.60;;;2.80;;
12567;SDS011;6349;50.904;6.136;2023-08-24T02:49:21;4.70;;;2.55;;
12567;SDS011;6349;50.904;6.136;2023-08-24T02:51:22;3.05;;;2.45;;
12567;SDS011;6349;50.904;6.136;2023-08-24T02:53:23;3.30;;;2.60;;
12567;SDS011;6349;50.904;6.136;2023-08-24T02:55:24;3.35;;;2.60;;
12567;SDS011;6349;50.904;6.136;2023-08-24T02:57:25;4.57;;;3.00;;
12567;SDS011;6349;50.904;6.136;2023-08-24T02:59:25;3.13;;;2.30;;
12567;SDS011;6349;50.904;6.136;2023-08-24T03:01:26;3.03;;;2.30;;
12567;SDS011;6349;50.904;6.136;2023-08-24T03:03:26;2.47;;;2.28;;
12567;SDS011;6349;50.904;6.136;2023-08-24T03:05:28;2.38;;;2.17;;
12567;SDS011;6349;50.904;6.136;2023-08-24T03:07:29;2.35;;;2.15;;
12567;SDS011;6349;50.904;6.136;2023-08-24T03:09:29;2.40;;;2.20;;
12567;SDS011;6349;50.904;6.136;2023-08-24T03:11:30;2.20;;;2.00;;
12567;SDS011;6349;50.904;6.136;2023-08-24T03:13:31;2.47;;;2.28;;
12567;SDS011;6349;50.904;6.136;2023-08-24T03:15:31;3.58;;;2.30;;
12567;SDS011;6349;50.904;6.136;2023-08-24T03:17:32;3.28;;;2.60;;
12567;SDS011;6349;50.904;6.136;2023-08-24T03:19:33;4.13;;;2.50;;
12567;SDS011;6349;50.904;6.136;2023-08-24T03:21:33;2.60;;;2.35;;
12567;SDS011;6349;50.904;6.136;2023-08-24T03:23:34;2.35;;;2.15;;
12567;SDS011;6349;50.904;6.136;2023-08-24T03:25:35;3.13;;;2.47;;
12567;SDS011;6349;50.904;6.136;2023-08-24T03:27:37;2.33;;;2.13;;
12567;SDS011;6349;50.904;6.136;2023-08-24T03:29:38;3.63;;;2.47;;
12567;SDS011;6349;50.904;6.136;2023-08-24T03:31:38;2.83;;;2.53;;
12567;SDS011;6349;50.904;6.136;2023-08-24T03:33:39;3.17;;;2.33;;
12567;SDS011;6349;50.904;6.136;2023-08-24T03:35:40;2.30;;;2.10;;
12567;SDS011;6349;50.904;6.136;2023-08-24T03:37:41;3.40;;;2.50;;
12567;SDS011;6349;50.904;6.136;2023-08-24T03:39:41;3.78;;;2.47;;
12567;SDS011;6349;50.904;6.136;2023-08-24T03:41:42;3.15;;;2.58;;
12567;SDS011;6349;50.904;6.136;2023-08-24T03:43:42;3.70;;;2.65;;
12567;SDS011;6349;50.904;6.136;2023-08-24T03:45:43;3.40;;;2.47;;
12567;SDS011;6349;50.904;6.136;2023-08-24T03:47:44;3.60;;;2.38;;
12567;SDS011;6349;50.904;6.136;2023-08-24T03:49:44;3.45;;;2.60;;
12567;SDS011;6349;50.904;6.136;2023-08-24T03:51:45;3.33;;;2.60;;
12567;SDS011;6349;50.904;6.136;2023-08-24T03:53:46;3.60;;;2.78;;
12567;SDS011;6349;50.904;6.136;2023-08-24T03:55:50;4.50;;;2.58;;
12567;SDS011;6349;50.904;6.136;2023-08-24T03:57:51;3.90;;;2.88;;
12567;SDS011;6349;50.904;6.136;2023-08-24T03:59:54;3.90;;;2.95;;
12567;SDS011;6349;50.904;6.136;2023-08-24T04:01:54;4.68;;;3.30;;
12567;SDS011;6349;50.904;6.136;2023-08-24T04:03:55;3.50;;;3.20;;
12567;SDS011;6349;50.904;6.136;2023-08-24T04:05:57;5.75;;;3.10;;
12567;SDS011;6349;50.904;6.136;2023-08-24T04:07:58;7.22;;;2.85;;
12567;SDS011;6349;50.904;6.136;2023-08-24T04:10:00;5.97;;;3.20;;
12567;SDS011;6349;50.904;6.136;2023-08-24T04:12:01;5.57;;;3.00;;
12567;SDS011;6349;50.904;6.136;2023-08-24T04:14:02;6.65;;;3.08;;
12567;SDS011;6349;50.904;6.136;2023-08-24T04:16:03;3.38;;;3.08;;
12567;SDS011;6349;50.904;6.136;2023-08-24T04:18:03;4.45;;;3.38;;
12567;SDS011;6349;50.904;6.136;2023-08-24T04:20:04;3.80;;;3.40;;
12567;SDS011;6349;50.904;6.136;2023-08-24T04:22:06;3.65;;;3.03;;
12567;SDS011;6349;50.904;6.136;2023-08-24T04:24:07;5.55;;;3.22;;
12567;SDS011;6349;50.904;6.136;2023-08-24T04:26:07;4.72;;;3.00;;
12567;SDS011;6349;50.904;6.136;2023-08-24T04:28:08;8.23;;;3.50;;
12567;SDS011;6349;50.904;6.136;2023-08-24T04:30:08;4.45;;;4.05;;
12567;SDS011;6349;50.904;6.136;2023-08-24T04:32:12;4.53;;;3.40;;
12567;SDS011;6349;50.904;6.136;2023-08-24T04:34:12;4.38;;;3.25;;
12567;SDS011;6349;50.904;6.136;2023-08-24T04:36:13;5.68;;;3.20;;
12567;SDS011;6349;50.904;6.136;2023-08-24T04:38:13;4.00;;;3.38;;
12567;SDS011;6349;50.904;6.136;2023-08-24T04:40:14;4.82;;;3.63;;
12567;SDS011;6349;50.904;6.136;2023-08-24T04:42:15;4.07;;;3.38;;
12567;SDS011;6349;50.904;6.136;2023-08-24T04:44:15;8.02;;;3.50;;
12567;SDS011;6349;50.904;6.136;2023-08-24T04:46:16;3.92;;;3.10;;
12567;SDS011;6349;50.904;6.136;2023-08-24T04:48:17;4.93;;;3.47;;
12567;SDS011;6349;50.904;6.136;2023-08-24T04:50:17;7.45;;;3.47;;
12567;SDS011;6349;50.904;6.136;2023-08-24T04:52:18;5.03;;;3.08;;
12567;SDS011;6349;50.904;6.136;2023-08-24T04:54:18;4.50;;;3.30;;
12567;SDS011;6349;50.904;6.136;2023-08-24T04:56:19;4.10;;;3.17;;
12567;SDS011;6349;50.904;6.136;2023-08-24T04:58:20;3.40;;;3.00;;
12567;SDS011;6349;50.904;6.136;2023-08-24T05:00:21;2.83;;;2.63;;
12567;SDS011;6349;50.904;6.136;2023-08-24T05:02:22;4.47;;;3.20;;
12567;SDS011;6349;50.904;6.136;2023-08-24T05:04:23;4.32;;;3.40;;
12567;SDS011;6349;50.904;6.136;2023-08-24T05:06:24;4.70;;;3.70;;
12567;SDS011;6349;50.904;6.136;2023-08-24T05:08:24;5.50;;;3.30;;
12567;SDS011;6349;50.904;6.136;2023-08-24T05:10:25;7.38;;;3.83;;
12567;SDS011;6349;50.904;6.136;2023-08-24T05:12:26;4.00;;;3.60;;
12567;SDS011;6349;50.904;6.136;2023-08-24T05:14:26;3.90;;;3.33;;
12567;SDS011;6349;50.904;6.136;2023-08-24T05:16:27;4.30;;;3.30;;
12567;SDS011;6349;50.904;6.136;2023-08-24T05:18:28;4.68;;;3.15;;
12567;SDS011;6349;50.904;6.136;2023-08-24T05:20:28;4.82;;;3.50;;
12567;SDS011;6349;50.904;6.136;2023-08-24T05:22:29;4.35;;;3.15;;
12567;SDS011;6349;50.904;6.136;2023-08-24T05:24:29;5.65;;;3.15;;
12567;SDS011;6349;50.904;6.136;2023-08-24T05:26:30;5.50;;;3.28;;
12567;SDS011;6349;50.904;6.136;2023-08-24T05:28:31;4.15;;;3.30;;
12567;SDS011;6349;50.904;6.136;2023-08-24T05:30:31;3.30;;;3.00;;
12567;SDS011;6349;50.904;6.136;2023-08-24T05:32:32;5.38;;;3.05;;
12567;SDS011;6349;50.904;6.136;2023-08-24T05:34:34;4.10;;;3.28;;
12567;SDS011;6349;50.904;6.136;2023-08-24T05:36:34;4.15;;;3.00;;
12567;SDS011;6349;50.904;6.136;2023-08-24T05:38:35;4.72;;;3.03;;
12567;SDS011;6349;50.904;6.136;2023-08-24T05:40:35;5.00;;;3.30;;
12567;SDS011;6349;50.904;6.136;2023-08-24T05:42:37;5.22;;;3.10;;
12567;SDS011;6349;50.904;6.136;2023-08-24T05:44:37;4.45;;;3.22;;
12567;SDS011;6349;50.904;6.136;2023-08-24T05:46:38;5.75;;;3.20;;
12567;SDS011;6349;50.904;6.136;2023-08-24T05:48:39;3.05;;;2.75;;
12567;SDS011;6349;50.904;6.136;2023-08-24T05:50:45;6.28;;;3.42;;
12567;SDS011;6349;50.904;6.136;2023-08-24T05:52:46;3.53;;;2.83;;
12567;SDS011;6349;50.904;6.136;2023-08-24T05:54:47;3.88;;;3.20;;
12567;SDS011;6349;50.904;6.136;2023-08-24T05:56:47;5.32;;;3.03;;
12567;SDS011;6349;50.904;6.136;2023-08-24T05:58:48;6.60;;;3.60;;
12567;SDS011;6349;50.904;6.136;2023-08-24T06:00:54;6.22;;;3.50;;
12567;SDS011;6349;50.904;6.136;2023-08-24T06:02:56;5.32;;;3.50;;
12567;SDS011;6349;50.904;6.136;2023-08-24T06:04:57;4.22;;;3.78;;
12567;SDS011;6349;50.904;6.136;2023-08-24T06:06:58;5.18;;;3.42;;
12567;SDS011;6349;50.904;6.136;2023-08-24T06:08:58;4.47;;;3.47;;
12567;SDS011;6349;50.904;6.136;2023-08-24T06:10:59;5.25;;;3.55;;
12567;SDS011;6349;50.904;6.136;2023-08-24T06:12:59;6.72;;;3.88;;
12567;SDS011;6349;50.904;6.136;2023-08-24T06:15:01;5.70;;;3.20;;
12567;SDS011;6349;50.904;6.136;2023-08-24T06:17:04;6.53;;;3.42;;
12567;SDS011;6349;50.904;6.136;2023-08-24T06:19:05;6.93;;;3.65;;
12567;SDS011;6349;50.904;6.136;2023-08-24T06:21:05;4.95;;;3.47;;
12567;SDS011;6349;50.904;6.136;2023-08-24T06:23:08;5.18;;;3.40;;
12567;SDS011;6349;50.904;6.136;2023-08-24T06:25:09;5.68;;;3.35;;
12567;SDS011;6349;50.904;6.136;2023-08-24T06:27:09;5.70;;;3.70;;
12567;SDS011;6349;50.904;6.136;2023-08-24T06:29:10;5.95;;;3.85;;
12567;SDS011;6349;50.904;6.136;2023-08-24T06:31:10;6.38;;;3.97;;
12567;SDS011;6349;50.904;6.136;2023-08-24T06:33:11;6.03;;;3.67;;
12567;SDS011;6349;50.904;6.136;2023-08-24T06:35:12;7.75;;;3.35;;
12567;SDS011;6349;50.904;6.136;2023-08-24T06:37:15;4.97;;;3.67;;
12567;SDS011;6349;50.904;6.136;2023-08-24T06:39:16;4.95;;;3.60;;
12567;SDS011;6349;50.904;6.136;2023-08-24T06:41:16;4.47;;;3.58;;
12567;SDS011;6349;50.904;6.136;2023-08-24T06:43:17;4.10;;;3.47;;
12567;SDS011;6349;50.904;6.136;2023-08-24T06:45:18;3.85;;;3.47;;
12567;SDS011;6349;50.904;6.136;2023-08-24T06:47:18;7.00;;;3.70;;
12567;SDS011;6349;50.904;6.136;2023-08-24T06:49:21;4.50;;;3.38;;
12567;SDS011;6349;50.904;6.136;2023-08-24T06:51:22;7.50;;;3.22;;
12567;SDS011;6349;50.904;6.136;2023-08-24T06:53:23;8.02;;;3.20;;
12567;SDS011;6349;50.904;6.136;2023-08-24T06:55:23;5.63;;;3.05;;
12567;SDS011;6349;50.904;6.136;2023-08-24T06:57:24;4.10;;;3.20;;
12567;SDS011;6349;50.904;6.136;2023-08-24T06:59:24;5.75;;;3.22;;
12567;SDS011;6349;50.904;6.136;2023-08-24T07:01:25;5.38;;;3.33;;
12567;SDS011;6349;50.904;6.136;2023-08-24T07:03:26;4.30;;;2.95;;
12567;SDS011;6349;50.904;6.136;2023-08-24T07:05:26;4.82;;;2.92;;
12567;SDS011;6349;50.904;6.136;2023-08-24T07:07:27;3.70;;;2.97;;
12567;SDS011;6349;50.904;6.136;2023-08-24T07:09:27;4.22;;;2.88;;
12567;SDS011;6349;50.904;6.136;2023-08-24T07:11:28;5.00;;;2.90;;
12567;SDS011;6349;50.904;6.136;2023-08-24T07:13:29;5.38;;;3.17;;
12567;SDS011;6349;50.904;6.136;2023-08-24T07:15:30;4.80;;;3.10;;
12567;SDS011;6349;50.904;6.136;2023-08-24T07:17:31;3.30;;;3.00;;
12567;SDS011;6349;50.904;6.136;2023-08-24T07:19:31;3.65;;;2.53;;
12567;SDS011;6349;50.904;6.136;2023-08-24T07:21:32;3.50;;;2.92;;
12567;SDS011;6349;50.904;6.136;2023-08-24T07:23:32;6.35;;;3.20;;
12567;SDS011;6349;50.904;6.136;2023-08-24T07:25:33;5.72;;;2.70;;
12567;SDS011;6349;50.904;6.136;2023-08-24T07:27:34;3.42;;;2.63;;
12567;SDS011;6349;50.904;6.136;2023-08-24T07:29:35;3.08;;;2.85;;
12567;SDS011;6349;50.904;6.136;2023-08-24T07:31:36;5.85;;;3.17;;
12567;SDS011;6349;50.904;6.136;2023-08-24T07:33:37;4.82;;;3.47;;
12567;SDS011;6349;50.904;6.136;2023-08-24T07:35:38;5.55;;;3.58;;
12567;SDS011;6349;50.904;6.136;2023-08-24T07:37:39;6.15;;;3.42;;
12567;SDS011;6349;50.904;6.136;2023-08-24T07:39:40;5.05;;;3.60;;
12567;SDS011;6349;50.904;6.136;2023-08-24T07:41:41;4.22;;;3.42;;
12567;SDS011;6349;50.904;6.136;2023-08-24T07:43:42;7.20;;;3.33;;
12567;SDS011;6349;50.904;6.136;2023-08-24T07:45:43;3.30;;;2.90;;
12567;SDS011;6349;50.904;6.136;2023-08-24T07:47:43;6.25;;;3.25;;
12567;SDS011;6349;50.904;6.136;2023-08-24T07:49:44;4.72;;;2.90;;
12567;SDS011;6349;50.904;6.136;2023-08-24T07:51:44;2.95;;;2.42;;
12567;SDS011;6349;50.904;6.136;2023-08-24T07:53:47;4.28;;;2.75;;
12567;SDS011;6349;50.904;6.136;2023-08-24T07:55:49;3.58;;;2.60;;
12567;SDS011;6349;50.904;6.136;2023-08-24T07:57:49;4.32;;;2.80;;
12567;SDS011;6349;50.904;6.136;2023-08-24T07:59:50;3.17;;;2.85;;
12567;SDS011;6349;50.904;6.136;2023-08-24T08:01:51;5.68;;;2.50;;
12567;SDS011;6349;50.904;6.136;2023-08-24T08:03:52;7.88;;;2.90;;
12567;SDS011;6349;50.904;6.136;2023-08-24T08:05:52;3.08;;;2.78;;
12567;SDS011;6349;50.904;6.136;2023-08-24T08:07:54;2.60;;;2.40;;
12567;SDS011;6349;50.904;6.136;2023-08-24T08:09:55;3.42;;;2.47;;
12567;SDS011;6349;50.904;6.136;2023-08-24T08:11:56;4.88;;;2.78;;
12567;SDS011;6349;50.904;6.136;2023-08-24T08:13:57;3.28;;;2.47;;
12567;SDS011;6349;50.904;6.136;2023-08-24T08:16:02;4.72;;;2.80;;
12567;SDS011;6349;50.904;6.136;2023-08-24T08:18:06;4.35;;;2.40;;
12567;SDS011;6349;50.904;6.136;2023-08-24T08:20:07;4.65;;;2.70;;
12567;SDS011;6349;50.904;6.136;2023-08-24T08:22:07;3.38;;;2.53;;
12567;SDS011;6349;50.904;6.136;2023-08-24T08:24:08;3.75;;;2.70;;
12567;SDS011;6349;50.904;6.136;2023-08-24T08:26:09;2.50;;;2.30;;
12567;SDS011;6349;50.904;6.136;2023-08-24T08:28:10;2.83;;;2.35;;
12567;SDS011;6349;50.904;6.136;2023-08-24T08:30:11;3.72;;;2.60;;
12567;SDS011;6349;50.904;6.136;2023-08-24T08:32:12;4.13;;;2.88;;
12567;SDS011;6349;50.904;6.136;2023-08-24T08:34:13;4.15;;;2.50;;
12567;SDS011;6349;50.904;6.136;2023-08-24T08:36:13;3.10;;;2.47;;
12567;SDS011;6349;50.904;6.136;2023-08-24T08:38:14;3.20;;;2.45;;
12567;SDS011;6349;50.904;6.136;2023-08-24T08:40:15;4.85;;;2.75;;
12567;SDS011;6349;50.904;6.136;2023-08-24T08:42:17;3.95;;;2.85;;
12567;SDS011;6349;50.904;6.136;2023-08-24T08:44:17;2.92;;;2.55;;
12567;SDS011;6349;50.904;6.136;2023-08-24T08:46:19;2.78;;;2.47;;
12567;SDS011;6349;50.904;6.136;2023-08-24T08:48:21;3.40;;;2.28;;
12567;SDS011;6349;50.904;6.136;2023-08-24T08:50:22;5.18;;;3.00;;
12567;SDS011;6349;50.904;6.136;2023-08-24T08:52:22;5.43;;;2.58;;
12567;SDS011;6349;50.904;6.136;2023-08-24T08:54:25;2.55;;;2.30;;
12567;SDS011;6349;50.904;6.136;2023-08-24T08:56:26;3.00;;;2.50;;
12567;SDS011;6349;50.904;6.136;2023-08-24T08:58:26;4.15;;;2.35;;
12567;SDS011;6349;50.904;6.136;2023-08-24T09:00:28;3.10;;;2.25;;
12567;SDS011;6349;50.904;6.136;2023-08-24T09:02:29;5.53;;;3.30;;
12567;SDS011;6349;50.904;6.136;2023-08-24T09:04:32;5.05;;;3.45;;
12567;SDS011;6349;50.904;6.136;2023-08-24T09:06:33;3.58;;;2.60;;
12567;SDS011;6349;50.904;6.136;2023-08-24T09:08:34;3.63;;;2.50;;
12567;SDS011;6349;50.904;6.136;2023-08-24T09:10:35;3.17;;;2.47;;
12567;SDS011;6349;50.904;6.136;2023-08-24T09:12:36;4.68;;;2.53;;
12567;SDS011;6349;50.904;6.136;2023-08-24T09:14:37;4.93;;;2.58;;
12567;SDS011;6349;50.904;6.136;2023-08-24T09:16:37;4.28;;;3.00;;
12567;SDS011;6349;50.904;6.136;2023-08-24T09:18:39;3.72;;;2.80;;
12567;SDS011;6349;50.904;6.136;2023-08-24T09:20:41;4.80;;;2.97;;
12567;SDS011;6349;50.904;6.136;2023-08-24T09:22:42;3.15;;;2.75;;
12567;SDS011;6349;50.904;6.136;2023-08-24T09:24:44;4.72;;;3.05;;
12567;SDS011;6349;50.904;6.136;2023-08-24T09:26:48;3.72;;;2.67;;
12567;SDS011;6349;50.904;6.136;2023-08-24T09:28:48;2.90;;;2.30;;
12567;SDS011;6349;50.904;6.136;2023-08-24T09:30:51;3.60;;;2.30;;
12567;SDS011;6349;50.904;6.136;2023-08-24T09:32:54;2.75;;;2.30;;
12567;SDS011;6349;50.904;6.136;2023-08-24T09:34:55;2.83;;;2.50;;
12567;SDS011;6349;50.904;6.136;2023-08-24T09:36:56;4.78;;;2.75;;
12567;SDS011;6349;50.904;6.136;2023-08-24T09:38:58;3.33;;;2.40;;
12567;SDS011;6349;50.904;6.136;2023-08-24T09:40:59;4.68;;;2.60;;
12567;SDS011;6349;50.904;6.136;2023-08-24T09:43:02;3.70;;;2.35;;
12567;SDS011;6349;50.904;6.136;2023-08-24T09:45:05;5.28;;;2.80;;
12567;SDS011;6349;50.904;6.136;2023-08-24T09:47:09;3.50;;;2.13;;
12567;SDS011;6349;50.904;6.136;2023-08-24T09:49:11;4.03;;;2.58;;
12567;SDS011;6349;50.904;6.136;2023-08-24T09:51:12;3.58;;;2.45;;
12567;SDS011;6349;50.904;6.136;2023-08-24T09:53:20;3.55;;;2.58;;
12567;SDS011;6349;50.904;6.136;2023-08-24T09:55:22;3.47;;;2.63;;
12567;SDS011;6349;50.904;6.136;2023-08-24T09:57:26;4.03;;;2.53;;
12567;SDS011;6349;50.904;6.136;2023-08-24T09:59:27;4.03;;;2.50;;
12567;SDS011;6349;50.904;6.136;2023-08-24T10:01:29;6.45;;;2.80;;
12567;SDS011;6349;50.904;6.136;2023-08-24T10:03:32;3.80;;;2.50;;
12567;SDS011;6349;50.904;6.136;2023-08-24T10:05:33;2.50;;;2.22;;
12567;SDS011;6349;50.904;6.136;2023-08-24T10:07:35;3.17;;;2.47;;
12567;SDS011;6349;50.904;6.136;2023-08-24T10:09:45;4.53;;;2.70;;
12567;SDS011;6349;50.904;6.136;2023-08-24T10:11:50;2.88;;;2.15;;
12567;SDS011;6349;50.904;6.136;2023-08-24T10:14:12;2.78;;;2.30;;
12567;SDS011;6349;50.904;6.136;2023-08-24T10:16:19;3.55;;;2.40;;
12567;SDS011;6349;50.904;6.136;2023-08-24T10:18:21;2.30;;;2.10;;
12567;SDS011;6349;50.904;6.136;2023-08-24T10:20:24;2.78;;;2.35;;
12567;SDS011;6349;50.904;6.136;2023-08-24T10:22:26;3.45;;;2.30;;
12567;SDS011;6349;50.904;6.136;2023-08-24T10:24:28;4.13;;;2.63;;
12567;SDS011;6349;50.904;6.136;2023-08-24T10:26:32;5.30;;;2.60;;
12567;SDS011;6349;50.904;6.136;2023-08-24T10:28:34;2.92;;;2.38;;
12567;SDS011;6349;50.904;6.136;2023-08-24T10:30:35;5.13;;;2.30;;
12567;SDS011;6349;50.904;6.136;2023-08-24T10:32:37;3.40;;;2.17;;
12567;SDS011;6349;50.904;6.136;2023-08-24T10:34:40;5.50;;;2.40;;
12567;SDS011;6349;50.904;6.136;2023-08-24T10:36:41;7.13;;;2.53;;
12567;SDS011;6349;50.904;6.136;2023-08-24T10:38:42;3.75;;;2.47;;
12567;SDS011;6349;50.904;6.136;2023-08-24T10:40:43;6.00;;;2.50;;
12567;SDS011;6349;50.904;6.136;2023-08-24T10:42:44;5.85;;;2.58;;
12567;SDS011;6349;50.904;6.136;2023-08-24T10:44:46;5.45;;;2.45;;
12567;SDS011;6349;50.904;6.136;2023-08-24T10:47:06;6.95;;;2.63;;
12567;SDS011;6349;50.904;6.136;2023-08-24T10:49:07;5.32;;;2.50;;
12567;SDS011;6349;50.904;6.136;2023-08-24T10:53:37;5.95;;;2.53;;
12567;SDS011;6349;50.904;6.136;2023-08-24T10:55:38;6.57;;;2.72;;
12567;SDS011;6349;50.904;6.136;2023-08-24T10:57:39;5.97;;;2.40;;
12567;SDS011;6349;50.904;6.136;2023-08-24T10:59:41;6.75;;;2.63;;
12567;SDS011;6349;50.904;6.136;2023-08-24T11:01:42;6.05;;;2.40;;
12567;SDS011;6349;50.904;6.136;2023-08-24T11:04:04;7.40;;;2.70;;
12567;SDS011;6349;50.904;6.136;2023-08-24T11:06:17;5.82;;;2.25;;
12567;SDS011;6349;50.904;6.136;2023-08-24T11:08:21;3.85;;;2.65;;
12567;SDS011;6349;50.904;6.136;2023-08-24T11:10:46;5.30;;;2.65;;
12567;SDS011;6349;50.904;6.136;2023-08-24T11:15:09;7.68;;;3.38;;
12567;SDS011;6349;50.904;6.136;2023-08-24T11:17:19;5.43;;;3.22;;
12567;SDS011;6349;50.904;6.136;2023-08-24T11:19:23;5.28;;;2.70;;
12567;SDS011;6349;50.904;6.136;2023-08-24T11:21:24;9.52;;;3.10;;
12567;SDS011;6349;50.904;6.136;2023-08-24T11:23:26;4.95;;;2.80;;
12567;SDS011;6349;50.904;6.136;2023-08-24T11:25:26;6.25;;;3.08;;
12567;SDS011;6349;50.904;6.136;2023-08-24T11:27:28;4.35;;;3.15;;
12567;SDS011;6349;50.904;6.136;2023-08-24T11:29:30;4.65;;;3.53;;
12567;SDS011;6349;50.904;6.136;2023-08-24T11:31:32;4.95;;;3.10;;
12567;SDS011;6349;50.904;6.136;2023-08-24T11:33:34;4.35;;;3.40;;
12567;SDS011;6349;50.904;6.136;2023-08-24T11:35:35;5.45;;;3.20;;
12567;SDS011;6349;50.904;6.136;2023-08-24T11:37:37;5.85;;;3.45;;
12567;SDS011;6349;50.904;6.136;2023-08-24T11:39:37;6.97;;;3.40;;
12567;SDS011;6349;50.904;6.136;2023-08-24T11:41:38;6.20;;;3.33;;
12567;SDS011;6349;50.904;6.136;2023-08-24T11:43:39;5.10;;;3.20;;
12567;SDS011;6349;50.904;6.136;2023-08-24T11:45:39;5.03;;;3.10;;
12567;SDS011;6349;50.904;6.136;2023-08-24T11:47:42;4.05;;;2.83;;
12567;SDS011;6349;50.904;6.136;2023-08-24T11:49:43;7.18;;;3.15;;
12567;SDS011;6349;50.904;6.136;2023-08-24T11:51:44;4.43;;;3.00;;
12567;SDS011;6349;50.904;6.136;2023-08-24T11:53:45;5.07;;;3.13;;
12567;SDS011;6349;50.904;6.136;2023-08-24T11:55:47;4.78;;;3.35;;
12567;SDS011;6349;50.904;6.136;2023-08-24T11:57:47;5.35;;;3.15;;
12567;SDS011;6349;50.904;6.136;2023-08-24T11:59:48;4.47;;;3.20;;
12567;SDS011;6349;50.904;6.136;2023-08-24T12:01:49;3.70;;;3.00;;
12567;SDS011;6349;50.904;6.136;2023-08-24T12:03:50;6.28;;;3.60;;
12567;SDS011;6349;50.904;6.136;2023-08-24T12:05:52;5.22;;;2.75;;
12567;SDS011;6349;50.904;6.136;2023-08-24T12:07:53;4.15;;;3.17;;
12567;SDS011;6349;50.904;6.136;2023-08-24T12:09:54;4.85;;;3.70;;
12567;SDS011;6349;50.904;6.136;2023-08-24T12:11:55;5.18;;;3.90;;
12567;SDS011;6349;50.904;6.136;2023-08-24T12:13:57;4.32;;;3.72;;
12567;SDS011;6349;50.904;6.136;2023-08-24T12:15:58;7.25;;;4.10;;
12567;SDS011;6349;50.904;6.136;2023-08-24T12:18:10;6.03;;;3.47;;
12567;SDS011;6349;50.904;6.136;2023-08-24T12:20:22;4.80;;;3.40;;
12567;SDS011;6349;50.904;6.136;2023-08-24T12:22:22;5.32;;;3.50;;
12567;SDS011;6349;50.904;6.136;2023-08-24T12:24:24;7.28;;;3.65;;
12567;SDS011;6349;50.904;6.136;2023-08-24T12:26:25;4.25;;;3.30;;
12567;SDS011;6349;50.904;6.136;2023-08-24T12:28:29;4.43;;;3.15;;